sensor_id;sensor_type;location;lat;lon;timestamp;pressure;altitude;pressure_sealevel;temperature;humidity
51245;BME280;37840;47.562;18.738;2023-04-09T00:01:07;100377.25;;;3.94;91.35
51245;BME280;37840;47.562;18.738;2023-04-09T00:03:33;100385.09;;;3.96;91.53
51245;BME280;37840;47.562;18.738;2023-04-09T00:06:00;100384.34;;;3.92;91.73
51245;BME280;37840;47.562;18.738;2023-04-09T00:08:25;100383.53;;;3.90;91.79
51245;BME280;37840;47.562;18.738;2023-04-09T00:10:51;100390.56;;;3.90;91.97
51245;BME280;37840;47.562;18.738;2023-04-09T00:13:18;100378.06;;;3.96;91.97
51245;BME280;37840;47.562;18.738;2023-04-09T00:15:44;100390.16;;;4.02;91.76
51245;BME280;37840;47.562;18.738;2023-04-09T00:18:10;100387.97;;;3.88;91.64
51245;BME280;37840;47.562;18.738;2023-04-09T00:20:35;100391.78;;;3.79;91.88
51245;BME280;37840;47.562;18.738;2023-04-09T00:23:01;100384.09;;;3.73;92.13
51245;BME280;37840;47.562;18.738;2023-04-09T00:25:27;100375.72;;;3.60;92.44
51245;BME280;37840;47.562;18.738;2023-04-09T00:27:53;100382.63;;;3.64;92.52
51245;BME280;37840;47.562;18.738;2023-04-09T00:30:19;100380.91;;;3.63;92.33
51245;BME280;37840;47.562;18.738;2023-04-09T00:32:45;100378.31;;;3.62;92.59
51245;BME280;37840;47.562;18.738;2023-04-09T00:35:11;100383.56;;;3.62;92.74
51245;BME280;37840;47.562;18.738;2023-04-09T00:37:37;100379.16;;;3.62;92.79
51245;BME280;37840;47.562;18.738;2023-04-09T00:40:03;100378.84;;;3.72;92.73
51245;BME280;37840;47.562;18.738;2023-04-09T00:42:32;100378.81;;;3.73;92.44
51245;BME280;37840;47.562;18.738;2023-04-09T00:44:58;100376.91;;;3.78;92.41
51245;BME280;37840;47.562;18.738;2023-04-09T00:47:24;100377.28;;;3.93;91.98
51245;BME280;37840;47.562;18.738;2023-04-09T00:49:50;100376.56;;;3.89;91.81
51245;BME280;37840;47.562;18.738;2023-04-09T00:52:16;100377.56;;;3.85;91.94
51245;BME280;37840;47.562;18.738;2023-04-09T00:54:41;100374.06;;;3.84;91.89
51245;BME280;37840;47.562;18.738;2023-04-09T00:57:07;100377.84;;;3.76;91.74
51245;BME280;37840;47.562;18.738;2023-04-09T00:59:33;100376.59;;;3.61;92.73
51245;BME280;37840;47.562;18.738;2023-04-09T01:01:59;100373.94;;;3.61;93.00
51245;BME280;37840;47.562;18.738;2023-04-09T01:04:24;100375.66;;;3.63;93.20
51245;BME280;37840;47.562;18.738;2023-04-09T01:06:51;100379.22;;;3.61;93.29
51245;BME280;37840;47.562;18.738;2023-04-09T01:14:37;100376.13;;;3.48;93.71
51245;BME280;37840;47.562;18.738;2023-04-09T01:17:04;100379.66;;;3.47;94.10
51245;BME280;37840;47.562;18.738;2023-04-09T01:22:22;100369.97;;;3.76;92.85
51245;BME280;37840;47.562;18.738;2023-04-09T01:27:36;100372.78;;;3.70;92.91
51245;BME280;37840;47.562;18.738;2023-04-09T01:30:03;100372.41;;;3.82;92.14
51245;BME280;37840;47.562;18.738;2023-04-09T01:32:30;100374.16;;;3.81;91.85
51245;BME280;37840;47.562;18.738;2023-04-09T01:34:58;100372.19;;;3.88;91.43
51245;BME280;37840;47.562;18.738;2023-04-09T01:37:24;100366.25;;;3.83;91.34
51245;BME280;37840;47.562;18.738;2023-04-09T01:39:51;100371.38;;;3.86;91.33
51245;BME280;37840;47.562;18.738;2023-04-09T01:42:17;100376.19;;;3.73;91.45
51245;BME280;37840;47.562;18.738;2023-04-09T01:44:42;100378.19;;;3.65;91.70
51245;BME280;37840;47.562;18.738;2023-04-09T01:47:09;100381.75;;;3.64;91.71
51245;BME280;37840;47.562;18.738;2023-04-09T01:49:36;100369.56;;;3.61;91.69
51245;BME280;37840;47.562;18.738;2023-04-09T01:52:02;100371.44;;;3.58;91.54
51245;BME280;37840;47.562;18.738;2023-04-09T01:54:28;100379.81;;;3.42;91.48
51245;BME280;37840;47.562;18.738;2023-04-09T01:56:55;100378.41;;;3.31;91.49
51245;BME280;37840;47.562;18.738;2023-04-09T01:59:21;100379.37;;;3.28;91.22
51245;BME280;37840;47.562;18.738;2023-04-09T02:01:54;100376.78;;;3.26;90.96
51245;BME280;37840;47.562;18.738;2023-04-09T02:04:27;100379.75;;;3.16;90.74
51245;BME280;37840;47.562;18.738;2023-04-09T02:09:36;100379.84;;;3.41;88.48
51245;BME280;37840;47.562;18.738;2023-04-09T02:12:04;100382.53;;;3.39;88.47
51245;BME280;37840;47.562;18.738;2023-04-09T02:14:31;100378.19;;;3.38;88.52
51245;BME280;37840;47.562;18.738;2023-04-09T02:16:58;100379.09;;;3.37;88.50
51245;BME280;37840;47.562;18.738;2023-04-09T02:19:23;100376.56;;;3.34;88.39
51245;BME280;37840;47.562;18.738;2023-04-09T02:21:49;100378.63;;;3.23;88.59
51245;BME280;37840;47.562;18.738;2023-04-09T02:24:15;100373.19;;;3.29;88.77
51245;BME280;37840;47.562;18.738;2023-04-09T02:26:41;100377.53;;;3.32;88.23
51245;BME280;37840;47.562;18.738;2023-04-09T02:29:06;100372.53;;;3.22;88.26
51245;BME280;37840;47.562;18.738;2023-04-09T02:31:32;100363.78;;;3.22;88.23
51245;BME280;37840;47.562;18.738;2023-04-09T02:33:58;100364.69;;;3.21;88.29
51245;BME280;37840;47.562;18.738;2023-04-09T02:36:23;100368.19;;;3.21;88.62
51245;BME280;37840;47.562;18.738;2023-04-09T02:38:50;100364.78;;;3.18;88.93
51245;BME280;37840;47.562;18.738;2023-04-09T02:41:16;100361.38;;;3.14;89.23
51245;BME280;37840;47.562;18.738;2023-04-09T02:43:41;100362.34;;;3.12;89.74
51245;BME280;37840;47.562;18.738;2023-04-09T02:46:07;100364.09;;;3.13;89.92
51245;BME280;37840;47.562;18.738;2023-04-09T02:48:33;100358.00;;;3.11;89.92
51245;BME280;37840;47.562;18.738;2023-04-09T02:50:58;100356.22;;;3.13;90.01
51245;BME280;37840;47.562;18.738;2023-04-09T02:53:24;100350.81;;;3.17;89.90
51245;BME280;37840;47.562;18.738;2023-04-09T02:55:53;100352.50;;;3.18;89.53
51245;BME280;37840;47.562;18.738;2023-04-09T02:58:18;100348.97;;;2.91;90.51
51245;BME280;37840;47.562;18.738;2023-04-09T03:00:44;100343.91;;;2.85;91.42
51245;BME280;37840;47.562;18.738;2023-04-09T03:03:10;100343.62;;;2.94;91.25
51245;BME280;37840;47.562;18.738;2023-04-09T03:05:36;100351.38;;;2.97;91.33
51245;BME280;37840;47.562;18.738;2023-04-09T03:08:02;100352.13;;;3.02;91.94
51245;BME280;37840;47.562;18.738;2023-04-09T03:10:28;100351.69;;;2.88;91.37
51245;BME280;37840;47.562;18.738;2023-04-09T03:12:53;100351.59;;;2.91;91.36
51245;BME280;37840;47.562;18.738;2023-04-09T03:15:19;100350.50;;;2.98;91.23
51245;BME280;37840;47.562;18.738;2023-04-09T03:17:45;100349.25;;;3.10;91.38
51245;BME280;37840;47.562;18.738;2023-04-09T03:20:10;100349.84;;;3.20;90.89
51245;BME280;37840;47.562;18.738;2023-04-09T03:22:36;100339.56;;;3.12;90.85
51245;BME280;37840;47.562;18.738;2023-04-09T03:25:02;100345.94;;;3.03;91.13
51245;BME280;37840;47.562;18.738;2023-04-09T03:27:28;100341.66;;;3.01;91.19
51245;BME280;37840;47.562;18.738;2023-04-09T03:29:54;100348.50;;;3.06;91.08
51245;BME280;37840;47.562;18.738;2023-04-09T03:32:20;100353.69;;;3.08;91.18
51245;BME280;37840;47.562;18.738;2023-04-09T03:34:46;100361.34;;;2.88;90.79
51245;BME280;37840;47.562;18.738;2023-04-09T03:37:11;100367.75;;;2.77;90.94
51245;BME280;37840;47.562;18.738;2023-04-09T03:39:37;100369.22;;;2.88;90.83
51245;BME280;37840;47.562;18.738;2023-04-09T03:42:03;100367.38;;;2.91;90.70
51245;BME280;37840;47.562;18.738;2023-04-09T03:44:28;100361.88;;;2.99;90.65
51245;BME280;37840;47.562;18.738;2023-04-09T03:46:54;100369.75;;;2.99;91.16
51245;BME280;37840;47.562;18.738;2023-04-09T03:49:20;100369.56;;;3.05;91.83
51245;BME280;37840;47.562;18.738;2023-04-09T03:51:46;100364.31;;;3.05;92.37
51245;BME280;37840;47.562;18.738;2023-04-09T03:54:11;100369.75;;;2.99;92.90
51245;BME280;37840;47.562;18.738;2023-04-09T03:56:37;100365.31;;;3.01;93.45
51245;BME280;37840;47.562;18.738;2023-04-09T03:59:03;100363.66;;;2.97;93.72
51245;BME280;37840;47.562;18.738;2023-04-09T04:01:28;100372.56;;;2.93;94.80
51245;BME280;37840;47.562;18.738;2023-04-09T04:03:57;100372.47;;;2.96;94.69
51245;BME280;37840;47.562;18.738;2023-04-09T04:06:23;100373.94;;;3.06;94.52
51245;BME280;37840;47.562;18.738;2023-04-09T04:08:48;100369.41;;;3.10;94.36
51245;BME280;37840;47.562;18.738;2023-04-09T04:11:14;100373.69;;;3.14;94.37
51245;BME280;37840;47.562;18.738;2023-04-09T04:13:40;100367.41;;;3.18;94.28
51245;BME280;37840;47.562;18.738;2023-04-09T04:16:07;100366.37;;;3.23;94.05
51245;BME280;37840;47.562;18.738;2023-04-09T04:18:33;100375.81;;;3.29;94.01
51245;BME280;37840;47.562;18.738;2023-04-09T04:20:59;100376.09;;;3.21;93.91
51245;BME280;37840;47.562;18.738;2023-04-09T04:23:25;100373.34;;;3.24;94.04
51245;BME280;37840;47.562;18.738;2023-04-09T04:25:51;100368.87;;;3.28;94.09
51245;BME280;37840;47.562;18.738;2023-04-09T04:28:17;100375.00;;;3.27;94.10
51245;BME280;37840;47.562;18.738;2023-04-09T04:30:43;100373.28;;;3.28;94.26
51245;BME280;37840;47.562;18.738;2023-04-09T04:33:08;100374.91;;;3.32;94.56
51245;BME280;37840;47.562;18.738;2023-04-09T04:35:34;100382.63;;;3.36;94.51
51245;BME280;37840;47.562;18.738;2023-04-09T04:38:00;100379.03;;;3.39;94.45
51245;BME280;37840;47.562;18.738;2023-04-09T04:40:26;100382.53;;;3.39;94.54
51245;BME280;37840;47.562;18.738;2023-04-09T04:42:51;100382.34;;;3.45;94.59
51245;BME280;37840;47.562;18.738;2023-04-09T04:45:17;100385.78;;;3.47;94.55
51245;BME280;37840;47.562;18.738;2023-04-09T04:47:43;100384.88;;;3.49;94.61
51245;BME280;37840;47.562;18.738;2023-04-09T04:50:09;100386.47;;;3.53;94.76
51245;BME280;37840;47.562;18.738;2023-04-09T04:52:35;100382.75;;;3.60;94.65
51245;BME280;37840;47.562;18.738;2023-04-09T04:55:00;100387.88;;;3.64;94.57
51245;BME280;37840;47.562;18.738;2023-04-09T04:57:26;100398.28;;;3.67;94.67
51245;BME280;37840;47.562;18.738;2023-04-09T04:59:52;100400.91;;;3.67;94.73
51245;BME280;37840;47.562;18.738;2023-04-09T05:02:18;100395.72;;;3.66;94.76
51245;BME280;37840;47.562;18.738;2023-04-09T05:04:43;100397.56;;;3.62;94.90
51245;BME280;37840;47.562;18.738;2023-04-09T05:07:09;100404.00;;;3.54;95.75
51245;BME280;37840;47.562;18.738;2023-04-09T05:09:35;100398.59;;;3.58;95.48
51245;BME280;37840;47.562;18.738;2023-04-09T05:12:01;100402.19;;;3.56;95.17
51245;BME280;37840;47.562;18.738;2023-04-09T05:14:26;100406.41;;;3.61;95.09
51245;BME280;37840;47.562;18.738;2023-04-09T05:16:52;100407.78;;;3.72;94.84
51245;BME280;37840;47.562;18.738;2023-04-09T05:19:18;100406.63;;;3.80;94.95
51245;BME280;37840;47.562;18.738;2023-04-09T05:21:43;100409.38;;;3.77;94.89
51245;BME280;37840;47.562;18.738;2023-04-09T05:24:09;100407.75;;;3.73;94.80
51245;BME280;37840;47.562;18.738;2023-04-09T05:26:35;100410.19;;;3.79;94.86
51245;BME280;37840;47.562;18.738;2023-04-09T05:29:01;100406.56;;;3.83;94.89
51245;BME280;37840;47.562;18.738;2023-04-09T05:31:27;100404.69;;;3.87;94.94
51245;BME280;37840;47.562;18.738;2023-04-09T05:33:52;100411.34;;;3.97;95.10
51245;BME280;37840;47.562;18.738;2023-04-09T05:36:18;100411.13;;;4.03;94.96
51245;BME280;37840;47.562;18.738;2023-04-09T05:38:47;100415.56;;;4.03;94.80
51245;BME280;37840;47.562;18.738;2023-04-09T05:41:13;100420.41;;;4.15;94.96
51245;BME280;37840;47.562;18.738;2023-04-09T05:43:39;100414.13;;;4.19;95.43
51245;BME280;37840;47.562;18.738;2023-04-09T05:46:05;100419.56;;;4.15;95.47
51245;BME280;37840;47.562;18.738;2023-04-09T05:48:33;100422.03;;;4.19;95.77
51245;BME280;37840;47.562;18.738;2023-04-09T05:50:59;100423.72;;;4.20;95.84
51245;BME280;37840;47.562;18.738;2023-04-09T05:53:24;100418.97;;;4.32;95.68
51245;BME280;37840;47.562;18.738;2023-04-09T05:55:50;100424.94;;;4.37;95.46
51245;BME280;37840;47.562;18.738;2023-04-09T05:58:16;100424.28;;;4.30;94.73
51245;BME280;37840;47.562;18.738;2023-04-09T06:00:43;100428.44;;;4.37;94.24
51245;BME280;37840;47.562;18.738;2023-04-09T06:03:08;100432.19;;;4.30;94.12
51245;BME280;37840;47.562;18.738;2023-04-09T06:05:34;100436.59;;;4.29;94.50
51245;BME280;37840;47.562;18.738;2023-04-09T06:08:00;100437.25;;;4.36;94.48
51245;BME280;37840;47.562;18.738;2023-04-09T06:10:26;100442.56;;;4.35;94.49
51245;BME280;37840;47.562;18.738;2023-04-09T06:12:51;100442.16;;;4.47;94.33
51245;BME280;37840;47.562;18.738;2023-04-09T06:15:17;100442.84;;;4.52;94.61
51245;BME280;37840;47.562;18.738;2023-04-09T06:17:43;100438.97;;;4.62;94.63
51245;BME280;37840;47.562;18.738;2023-04-09T06:20:09;100442.38;;;4.66;94.44
51245;BME280;37840;47.562;18.738;2023-04-09T06:22:35;100437.81;;;4.69;94.37
51245;BME280;37840;47.562;18.738;2023-04-09T06:25:01;100442.84;;;4.77;93.95
51245;BME280;37840;47.562;18.738;2023-04-09T06:27:26;100435.38;;;4.88;93.37
51245;BME280;37840;47.562;18.738;2023-04-09T06:29:52;100439.47;;;4.97;92.89
51245;BME280;37840;47.562;18.738;2023-04-09T06:32:18;100433.16;;;5.01;92.78
51245;BME280;37840;47.562;18.738;2023-04-09T06:34:43;100438.34;;;5.04;92.50
51245;BME280;37840;47.562;18.738;2023-04-09T06:37:09;100432.84;;;5.10;91.95
51245;BME280;37840;47.562;18.738;2023-04-09T06:39:35;100439.53;;;5.19;91.75
51245;BME280;37840;47.562;18.738;2023-04-09T06:42:00;100433.19;;;5.25;91.31
51245;BME280;37840;47.562;18.738;2023-04-09T06:44:28;100433.84;;;5.30;91.20
51245;BME280;37840;47.562;18.738;2023-04-09T06:46:54;100437.16;;;5.35;90.44
51245;BME280;37840;47.562;18.738;2023-04-09T06:49:20;100439.69;;;5.38;89.89
51245;BME280;37840;47.562;18.738;2023-04-09T06:51:45;100446.44;;;5.45;90.17
51245;BME280;37840;47.562;18.738;2023-04-09T06:54:11;100438.47;;;5.47;90.03
51245;BME280;37840;47.562;18.738;2023-04-09T06:56:37;100440.09;;;5.51;89.87
51245;BME280;37840;47.562;18.738;2023-04-09T06:59:02;100437.94;;;5.61;89.28
51245;BME280;37840;47.562;18.738;2023-04-09T07:01:28;100439.53;;;5.65;88.68
51245;BME280;37840;47.562;18.738;2023-04-09T07:03:54;100443.06;;;5.65;88.19
51245;BME280;37840;47.562;18.738;2023-04-09T07:06:20;100448.94;;;5.72;87.08
51245;BME280;37840;47.562;18.738;2023-04-09T07:08:45;100451.38;;;5.77;86.01
51245;BME280;37840;47.562;18.738;2023-04-09T07:11:11;100451.25;;;5.80;85.42
51245;BME280;37840;47.562;18.738;2023-04-09T07:13:37;100451.19;;;5.81;83.20
51245;BME280;37840;47.562;18.738;2023-04-09T07:16:03;100448.44;;;5.84;81.90
51245;BME280;37840;47.562;18.738;2023-04-09T07:18:29;100450.03;;;5.88;81.57
51245;BME280;37840;47.562;18.738;2023-04-09T07:20:55;100450.69;;;5.95;81.02
51245;BME280;37840;47.562;18.738;2023-04-09T07:23:21;100446.91;;;6.01;80.28
51245;BME280;37840;47.562;18.738;2023-04-09T07:25:47;100453.19;;;5.98;81.08
51245;BME280;37840;47.562;18.738;2023-04-09T07:28:13;100459.81;;;6.08;80.94
51245;BME280;37840;47.562;18.738;2023-04-09T07:30:38;100461.41;;;6.12;80.93
51245;BME280;37840;47.562;18.738;2023-04-09T07:33:04;100460.22;;;6.20;80.28
51245;BME280;37840;47.562;18.738;2023-04-09T07:35:30;100458.31;;;6.23;80.55
51245;BME280;37840;47.562;18.738;2023-04-09T07:37:57;100455.50;;;6.28;79.92
51245;BME280;37840;47.562;18.738;2023-04-09T07:40:23;100458.66;;;6.36;80.68
51245;BME280;37840;47.562;18.738;2023-04-09T07:42:49;100459.25;;;6.43;81.08
51245;BME280;37840;47.562;18.738;2023-04-09T07:45:15;100463.28;;;6.51;81.60
51245;BME280;37840;47.562;18.738;2023-04-09T07:47:41;100454.06;;;6.62;81.54
51245;BME280;37840;47.562;18.738;2023-04-09T07:50:07;100458.94;;;6.71;81.09
51245;BME280;37840;47.562;18.738;2023-04-09T07:52:33;100455.16;;;6.77;81.71
51245;BME280;37840;47.562;18.738;2023-04-09T07:54:58;100457.41;;;6.86;80.99
51245;BME280;37840;47.562;18.738;2023-04-09T07:57:24;100461.63;;;6.90;80.25
51245;BME280;37840;47.562;18.738;2023-04-09T07:59:51;100465.72;;;6.97;79.57
51245;BME280;37840;47.562;18.738;2023-04-09T08:02:17;100458.91;;;7.12;78.70
51245;BME280;37840;47.562;18.738;2023-04-09T08:04:43;100457.16;;;7.11;80.68
51245;BME280;37840;47.562;18.738;2023-04-09T08:07:09;100457.47;;;7.24;79.64
51245;BME280;37840;47.562;18.738;2023-04-09T08:09:35;100458.88;;;7.31;78.10
51245;BME280;37840;47.562;18.738;2023-04-09T08:12:01;100460.63;;;7.32;77.70
51245;BME280;37840;47.562;18.738;2023-04-09T08:14:27;100458.69;;;7.35;78.58
51245;BME280;37840;47.562;18.738;2023-04-09T08:16:52;100462.59;;;7.46;77.76
51245;BME280;37840;47.562;18.738;2023-04-09T08:19:19;100466.03;;;7.48;76.59
51245;BME280;37840;47.562;18.738;2023-04-09T08:21:44;100470.13;;;7.55;77.17
51245;BME280;37840;47.562;18.738;2023-04-09T08:24:13;100472.13;;;7.69;75.60
51245;BME280;37840;47.562;18.738;2023-04-09T08:26:40;100476.28;;;7.74;76.14
51245;BME280;37840;47.562;18.738;2023-04-09T08:29:05;100473.34;;;7.81;76.34
51245;BME280;37840;47.562;18.738;2023-04-09T08:31:32;100471.81;;;7.94;74.22
51245;BME280;37840;47.562;18.738;2023-04-09T08:33:58;100470.09;;;7.93;74.17
51245;BME280;37840;47.562;18.738;2023-04-09T08:36:23;100466.56;;;7.92;73.72
51245;BME280;37840;47.562;18.738;2023-04-09T08:38:50;100484.03;;;7.96;75.01
51245;BME280;37840;47.562;18.738;2023-04-09T08:41:24;100476.56;;;8.05;73.89
51245;BME280;37840;47.562;18.738;2023-04-09T08:43:51;100480.19;;;8.04;73.39
51245;BME280;37840;47.562;18.738;2023-04-09T08:46:17;100488.03;;;8.05;74.01
51245;BME280;37840;47.562;18.738;2023-04-09T08:48:44;100485.03;;;7.94;71.74
51245;BME280;37840;47.562;18.738;2023-04-09T08:51:17;100477.66;;;8.01;71.73
51245;BME280;37840;47.562;18.738;2023-04-09T08:53:44;100490.50;;;7.91;72.20
51245;BME280;37840;47.562;18.738;2023-04-09T08:56:11;100500.03;;;7.95;71.61
51245;BME280;37840;47.562;18.738;2023-04-09T08:58:40;100489.31;;;7.96;72.31
51245;BME280;37840;47.562;18.738;2023-04-09T09:01:17;100498.50;;;7.89;73.29
51245;BME280;37840;47.562;18.738;2023-04-09T09:06:31;100503.06;;;8.05;72.77
51245;BME280;37840;47.562;18.738;2023-04-09T09:09:01;100510.03;;;7.88;71.96
51245;BME280;37840;47.562;18.738;2023-04-09T09:11:28;100504.59;;;7.91;72.70
51245;BME280;37840;47.562;18.738;2023-04-09T09:14:02;100512.97;;;8.01;73.68
51245;BME280;37840;47.562;18.738;2023-04-09T09:16:28;100511.69;;;7.91;73.45
51245;BME280;37840;47.562;18.738;2023-04-09T09:18:54;100510.44;;;7.98;73.98
51245;BME280;37840;47.562;18.738;2023-04-09T09:21:21;100509.72;;;7.94;75.67
51245;BME280;37840;47.562;18.738;2023-04-09T09:23:47;100513.81;;;8.02;74.80
51245;BME280;37840;47.562;18.738;2023-04-09T09:26:15;100512.59;;;7.90;73.05
51245;BME280;37840;47.562;18.738;2023-04-09T09:28:46;100509.72;;;7.94;73.58
51245;BME280;37840;47.562;18.738;2023-04-09T09:31:12;100514.25;;;7.92;73.77
51245;BME280;37840;47.562;18.738;2023-04-09T09:33:39;100514.91;;;7.97;73.56
51245;BME280;37840;47.562;18.738;2023-04-09T09:36:04;100511.47;;;7.95;71.45
51245;BME280;37840;47.562;18.738;2023-04-09T09:38:30;100506.16;;;7.95;70.44
51245;BME280;37840;47.562;18.738;2023-04-09T09:40:58;100509.09;;;7.89;71.90
51245;BME280;37840;47.562;18.738;2023-04-09T09:43:40;100503.53;;;7.95;71.89
51245;BME280;37840;47.562;18.738;2023-04-09T09:46:09;100506.41;;;7.91;73.80
51245;BME280;37840;47.562;18.738;2023-04-09T09:48:35;100508.81;;;7.95;74.07
51245;BME280;37840;47.562;18.738;2023-04-09T09:51:01;100505.31;;;7.95;73.95
51245;BME280;37840;47.562;18.738;2023-04-09T09:53:27;100504.63;;;8.09;72.92
51245;BME280;37840;47.562;18.738;2023-04-09T09:55:54;100503.41;;;8.16;73.07
51245;BME280;37840;47.562;18.738;2023-04-09T09:58:22;100501.81;;;8.31;71.12
51245;BME280;37840;47.562;18.738;2023-04-09T10:00:49;100499.16;;;8.31;73.37
51245;BME280;37840;47.562;18.738;2023-04-09T10:03:26;100504.56;;;8.47;71.72
51245;BME280;37840;47.562;18.738;2023-04-09T10:05:54;100503.56;;;8.49;68.53
51245;BME280;37840;47.562;18.738;2023-04-09T10:08:20;100503.97;;;8.59;69.37
51245;BME280;37840;47.562;18.738;2023-04-09T10:10:46;100506.66;;;8.75;70.71
51245;BME280;37840;47.562;18.738;2023-04-09T10:13:14;100503.78;;;8.80;69.96
51245;BME280;37840;47.562;18.738;2023-04-09T10:15:41;100506.91;;;8.88;69.01
51245;BME280;37840;47.562;18.738;2023-04-09T10:18:08;100498.09;;;8.87;67.46
51245;BME280;37840;47.562;18.738;2023-04-09T10:20:42;100502.22;;;8.93;68.63
51245;BME280;37840;47.562;18.738;2023-04-09T10:23:10;100501.25;;;9.11;67.81
51245;BME280;37840;47.562;18.738;2023-04-09T10:25:38;100502.41;;;9.23;67.42
51245;BME280;37840;47.562;18.738;2023-04-09T10:28:13;100499.16;;;9.18;68.20
51245;BME280;37840;47.562;18.738;2023-04-09T10:30:39;100492.31;;;9.30;68.02
51245;BME280;37840;47.562;18.738;2023-04-09T10:35:34;100494.75;;;9.50;67.92
51245;BME280;37840;47.562;18.738;2023-04-09T10:37:59;100488.59;;;9.66;66.88
51245;BME280;37840;47.562;18.738;2023-04-09T10:40:26;100486.00;;;9.64;65.97
51245;BME280;37840;47.562;18.738;2023-04-09T10:42:52;100490.56;;;9.62;65.52
51245;BME280;37840;47.562;18.738;2023-04-09T10:45:19;100490.12;;;9.70;64.04
51245;BME280;37840;47.562;18.738;2023-04-09T10:47:45;100488.25;;;9.72;63.61
51245;BME280;37840;47.562;18.738;2023-04-09T10:52:45;100488.34;;;9.70;59.75
51245;BME280;37840;47.562;18.738;2023-04-09T10:57:56;100492.94;;;9.51;63.71
51245;BME280;37840;47.562;18.738;2023-04-09T11:00:22;100488.28;;;9.05;64.15
51245;BME280;37840;47.562;18.738;2023-04-09T11:02:53;100494.25;;;9.10;63.14
51245;BME280;37840;47.562;18.738;2023-04-09T11:05:33;100493.91;;;9.16;62.44
51245;BME280;37840;47.562;18.738;2023-04-09T11:08:07;100490.81;;;9.08;63.42
51245;BME280;37840;47.562;18.738;2023-04-09T11:10:34;100485.88;;;9.18;64.89
51245;BME280;37840;47.562;18.738;2023-04-09T11:13:00;100485.19;;;9.30;65.93
51245;BME280;37840;47.562;18.738;2023-04-09T11:15:26;100485.31;;;9.45;65.84
51245;BME280;37840;47.562;18.738;2023-04-09T11:17:51;100481.22;;;9.55;65.95
51245;BME280;37840;47.562;18.738;2023-04-09T11:20:21;100479.00;;;9.63;64.97
51245;BME280;37840;47.562;18.738;2023-04-09T11:22:51;100485.84;;;9.67;64.19
51245;BME280;37840;47.562;18.738;2023-04-09T11:25:20;100484.28;;;9.47;63.21
51245;BME280;37840;47.562;18.738;2023-04-09T11:27:47;100485.50;;;9.42;63.05
51245;BME280;37840;47.562;18.738;2023-04-09T11:30:16;100485.50;;;9.42;64.12
51245;BME280;37840;47.562;18.738;2023-04-09T11:32:41;100482.00;;;9.57;63.96
51245;BME280;37840;47.562;18.738;2023-04-09T11:35:11;100483.88;;;9.71;63.40
51245;BME280;37840;47.562;18.738;2023-04-09T11:37:37;100473.88;;;9.76;63.82
51245;BME280;37840;47.562;18.738;2023-04-09T11:40:03;100479.06;;;9.77;63.75
51245;BME280;37840;47.562;18.738;2023-04-09T11:42:32;100481.28;;;9.53;63.73
51245;BME280;37840;47.562;18.738;2023-04-09T11:44:58;100488.56;;;9.34;63.63
51245;BME280;37840;47.562;18.738;2023-04-09T11:47:25;100486.94;;;9.47;61.05
51245;BME280;37840;47.562;18.738;2023-04-09T11:49:51;100483.34;;;9.48;62.16
51245;BME280;37840;47.562;18.738;2023-04-09T11:52:17;100478.56;;;9.55;62.18
51245;BME280;37840;47.562;18.738;2023-04-09T11:54:49;100479.59;;;9.52;64.29
51245;BME280;37840;47.562;18.738;2023-04-09T11:57:15;100475.13;;;9.69;64.60
51245;BME280;37840;47.562;18.738;2023-04-09T11:59:41;100482.16;;;9.86;64.21
51245;BME280;37840;47.562;18.738;2023-04-09T12:02:07;100474.53;;;9.95;63.28
51245;BME280;37840;47.562;18.738;2023-04-09T12:04:33;100481.37;;;9.99;63.07
51245;BME280;37840;47.562;18.738;2023-04-09T12:06:59;100473.19;;;9.88;61.06
51245;BME280;37840;47.562;18.738;2023-04-09T12:09:24;100475.84;;;9.88;61.03
51245;BME280;37840;47.562;18.738;2023-04-09T12:11:50;100479.25;;;9.90;60.81
51245;BME280;37840;47.562;18.738;2023-04-09T12:14:17;100477.97;;;9.97;59.26
51245;BME280;37840;47.562;18.738;2023-04-09T12:16:43;100489.47;;;9.82;64.46
51245;BME280;37840;47.562;18.738;2023-04-09T12:19:09;100481.03;;;9.90;63.23
51245;BME280;37840;47.562;18.738;2023-04-09T12:21:48;100476.03;;;10.15;61.15
51245;BME280;37840;47.562;18.738;2023-04-09T12:24:18;100474.50;;;10.27;59.90
51245;BME280;37840;47.562;18.738;2023-04-09T12:26:45;100477.94;;;10.59;59.89
51245;BME280;37840;47.562;18.738;2023-04-09T12:29:14;100475.16;;;10.47;57.90
51245;BME280;37840;47.562;18.738;2023-04-09T12:31:41;100474.87;;;10.51;59.38
51245;BME280;37840;47.562;18.738;2023-04-09T12:34:07;100471.78;;;10.59;60.49
51245;BME280;37840;47.562;18.738;2023-04-09T12:36:32;100467.50;;;10.71;58.64
51245;BME280;37840;47.562;18.738;2023-04-09T12:38:58;100467.63;;;10.84;58.87
51245;BME280;37840;47.562;18.738;2023-04-09T12:41:24;100464.72;;;10.88;57.31
51245;BME280;37840;47.562;18.738;2023-04-09T12:43:50;100456.03;;;10.85;57.52
51245;BME280;37840;47.562;18.738;2023-04-09T12:46:18;100459.56;;;10.85;55.61
51245;BME280;37840;47.562;18.738;2023-04-09T12:48:45;100452.31;;;10.73;59.93
51245;BME280;37840;47.562;18.738;2023-04-09T12:51:11;100458.59;;;10.72;57.63
51245;BME280;37840;47.562;18.738;2023-04-09T12:53:37;100451.94;;;10.79;58.07
51245;BME280;37840;47.562;18.738;2023-04-09T12:56:03;100446.81;;;10.76;57.67
51245;BME280;37840;47.562;18.738;2023-04-09T12:58:29;100451.66;;;10.69;58.25
51245;BME280;37840;47.562;18.738;2023-04-09T13:00:55;100449.38;;;10.63;59.65
51245;BME280;37840;47.562;18.738;2023-04-09T13:03:24;100453.34;;;10.70;59.24
51245;BME280;37840;47.562;18.738;2023-04-09T13:05:51;100449.38;;;10.63;57.12
51245;BME280;37840;47.562;18.738;2023-04-09T13:08:17;100445.56;;;10.37;56.65
51245;BME280;37840;47.562;18.738;2023-04-09T13:10:43;100446.38;;;10.23;56.40